sensor_id;sensor_type;location;lat;lon;timestamp;P1;durP1;ratioP1;P2;durP2;ratioP2
60973;SDS011;46846;51.528;5.076;2022-12-15T00:01:00;27.85;;;26.13;;
60973;SDS011;46846;51.528;5.076;2022-12-15T00:03:44;28.13;;;26.35;;
60973;SDS011;46846;51.528;5.076;2022-12-15T00:06:28;33.13;;;30.83;;
60973;SDS011;46846;51.528;5.076;2022-12-15T00:09:12;29.58;;;27.70;;
60973;SDS011;46846;51.528;5.076;2022-12-15T00:11:56;33.05;;;30.40;;
60973;SDS011;46846;51.528;5.076;2022-12-15T00:14:40;30.98;;;28.70;;
60973;SDS011;46846;51.528;5.076;2022-12-15T00:17:24;33.63;;;31.42;;
60973;SDS011;46846;51.528;5.076;2022-12-15T00:20:08;30.30;;;27.90;;
60973;SDS011;46846;51.528;5.076;2022-12-15T00:22:52;33.65;;;30.42;;
60973;SDS011;46846;51.528;5.076;2022-12-15T00:25:36;29.95;;;27.55;;
60973;SDS011;46846;51.528;5.076;2022-12-15T00:28:20;28.98;;;27.08;;
60973;SDS011;46846;51.528;5.076;2022-12-15T00:31:04;30.27;;;28.35;;
60973;SDS011;46846;51.528;5.076;2022-12-15T00:33:48;30.48;;;28.52;;
60973;SDS011;46846;51.528;5.076;2022-12-15T00:36:32;29.92;;;26.13;;
60973;SDS011;46846;51.528;5.076;2022-12-15T00:39:16;30.50;;;28.30;;
60973;SDS011;46846;51.528;5.076;2022-12-15T00:41:41;31.30;;;29.20;;
60973;SDS011;46846;51.528;5.076;2022-12-15T00:44:07;30.47;;;28.57;;
60973;SDS011;46846;51.528;5.076;2022-12-15T00:46:32;30.97;;;28.97;;
60973;SDS011;46846;51.528;5.076;2022-12-15T00:49:16;33.20;;;30.80;;
60973;SDS011;46846;51.528;5.076;2022-12-15T00:52:00;31.15;;;29.10;;
60973;SDS011;46846;51.528;5.076;2022-12-15T00:54:44;31.05;;;28.95;;
60973;SDS011;46846;51.528;5.076;2022-12-15T00:57:28;30.77;;;28.25;;
60973;SDS011;46846;51.528;5.076;2022-12-15T01:00:12;31.48;;;29.25;;
60973;SDS011;46846;51.528;5.076;2022-12-15T01:02:56;28.77;;;26.75;;
60973;SDS011;46846;51.528;5.076;2022-12-15T01:05:41;30.27;;;27.90;;
60973;SDS011;46846;51.528;5.076;2022-12-15T01:08:25;28.88;;;26.90;;
60973;SDS011;46846;51.528;5.076;2022-12-15T01:11:10;29.98;;;27.98;;
60973;SDS011;46846;51.528;5.076;2022-12-15T01:13:54;29.65;;;27.80;;
60973;SDS011;46846;51.528;5.076;2022-12-15T01:16:38;30.15;;;28.20;;
60973;SDS011;46846;51.528;5.076;2022-12-15T01:19:22;29.98;;;28.15;;
60973;SDS011;46846;51.528;5.076;2022-12-15T01:22:06;28.77;;;26.77;;
60973;SDS011;46846;51.528;5.076;2022-12-15T01:24:31;33.67;;;30.48;;
60973;SDS011;46846;51.528;5.076;2022-12-15T01:26:56;32.50;;;30.30;;
60973;SDS011;46846;51.528;5.076;2022-12-15T01:29:22;32.73;;;30.47;;
60973;SDS011;46846;51.528;5.076;2022-12-15T01:31:48;30.67;;;28.73;;
60973;SDS011;46846;51.528;5.076;2022-12-15T01:34:13;27.57;;;25.87;;
60973;SDS011;46846;51.528;5.076;2022-12-15T01:36:39;28.63;;;26.90;;
60973;SDS011;46846;51.528;5.076;2022-12-15T01:39:04;35.07;;;32.03;;
60973;SDS011;46846;51.528;5.076;2022-12-15T01:41:29;27.67;;;25.98;;
60973;SDS011;46846;51.528;5.076;2022-12-15T01:44:12;29.80;;;27.43;;
60973;SDS011;46846;51.528;5.076;2022-12-15T01:46:46;30.33;;;28.42;;
60973;SDS011;46846;51.528;5.076;2022-12-15T01:49:16;29.80;;;28.00;;
60973;SDS011;46846;51.528;5.076;2022-12-15T01:51:47;28.52;;;26.63;;
60973;SDS011;46846;51.528;5.076;2022-12-15T01:54:22;30.45;;;28.45;;
60973;SDS011;46846;51.528;5.076;2022-12-15T01:56:54;28.25;;;26.42;;
60973;SDS011;46846;51.528;5.076;2022-12-15T01:59:29;30.40;;;28.42;;
60973;SDS011;46846;51.528;5.076;2022-12-15T02:01:58;29.67;;;27.20;;
60973;SDS011;46846;51.528;5.076;2022-12-15T02:04:24;32.30;;;30.20;;
60973;SDS011;46846;51.528;5.076;2022-12-15T02:06:49;31.63;;;29.65;;
60973;SDS011;46846;51.528;5.076;2022-12-15T02:09:17;31.92;;;29.45;;
60973;SDS011;46846;51.528;5.076;2022-12-15T02:11:58;29.13;;;27.33;;
60973;SDS011;46846;51.528;5.076;2022-12-15T02:28:15;31.42;;;28.92;;
60973;SDS011;46846;51.528;5.076;2022-12-15T02:33:50;30.15;;;27.85;;
60973;SDS011;46846;51.528;5.076;2022-12-15T02:36:26;27.25;;;25.60;;
60973;SDS011;46846;51.528;5.076;2022-12-15T02:38:56;27.27;;;25.52;;
60973;SDS011;46846;51.528;5.076;2022-12-15T02:41:55;29.83;;;27.90;;
60973;SDS011;46846;51.528;5.076;2022-12-15T02:46:53;28.50;;;26.73;;
60973;SDS011;46846;51.528;5.076;2022-12-15T02:57:59;29.38;;;27.55;;
60973;SDS011;46846;51.528;5.076;2022-12-15T03:00:29;30.35;;;28.50;;
60973;SDS011;46846;51.528;5.076;2022-12-15T03:03:00;30.90;;;28.90;;
60973;SDS011;46846;51.528;5.076;2022-12-15T03:05:26;29.65;;;27.83;;
60973;SDS011;46846;51.528;5.076;2022-12-15T03:07:52;31.33;;;29.02;;
60973;SDS011;46846;51.528;5.076;2022-12-15T03:10:19;28.77;;;26.77;;
60973;SDS011;46846;51.528;5.076;2022-12-15T03:12:47;28.45;;;26.67;;
60973;SDS011;46846;51.528;5.076;2022-12-15T03:15:14;28.65;;;26.63;;
60973;SDS011;46846;51.528;5.076;2022-12-15T03:17:40;27.48;;;25.70;;
60973;SDS011;46846;51.528;5.076;2022-12-15T03:20:06;30.77;;;28.55;;
60973;SDS011;46846;51.528;5.076;2022-12-15T03:22:33;31.83;;;29.83;;
60973;SDS011;46846;51.528;5.076;2022-12-15T03:24:59;32.17;;;30.17;;
60973;SDS011;46846;51.528;5.076;2022-12-15T03:27:24;27.50;;;25.80;;
60973;SDS011;46846;51.528;5.076;2022-12-15T03:29:49;29.17;;;27.37;;
60973;SDS011;46846;51.528;5.076;2022-12-15T03:32:15;29.97;;;28.07;;
60973;SDS011;46846;51.528;5.076;2022-12-15T03:34:40;28.20;;;26.40;;
60973;SDS011;46846;51.528;5.076;2022-12-15T03:37:05;27.73;;;26.03;;
60973;SDS011;46846;51.528;5.076;2022-12-15T03:39:31;29.45;;;27.63;;
60973;SDS011;46846;51.528;5.076;2022-12-15T03:41:56;25.70;;;24.13;;
60973;SDS011;46846;51.528;5.076;2022-12-15T03:44:22;29.83;;;28.03;;
60973;SDS011;46846;51.528;5.076;2022-12-15T03:46:47;27.60;;;25.90;;
60973;SDS011;46846;51.528;5.076;2022-12-15T03:49:12;26.70;;;25.00;;
60973;SDS011;46846;51.528;5.076;2022-12-15T03:51:38;30.97;;;28.77;;
60973;SDS011;46846;51.528;5.076;2022-12-15T03:54:03;27.10;;;25.40;;
60973;SDS011;46846;51.528;5.076;2022-12-15T03:56:29;26.55;;;24.88;;
60973;SDS011;46846;51.528;5.076;2022-12-15T03:58:54;30.08;;;28.17;;
60973;SDS011;46846;51.528;5.076;2022-12-15T04:03:45;30.60;;;28.30;;
60973;SDS011;46846;51.528;5.076;2022-12-15T04:06:10;30.45;;;28.50;;
60973;SDS011;46846;51.528;5.076;2022-12-15T04:08:35;26.25;;;24.65;;
60973;SDS011;46846;51.528;5.076;2022-12-15T04:11:01;27.20;;;25.52;;
60973;SDS011;46846;51.528;5.076;2022-12-15T04:13:26;27.60;;;25.80;;
60973;SDS011;46846;51.528;5.076;2022-12-15T04:15:52;26.35;;;24.75;;
60973;SDS011;46846;51.528;5.076;2022-12-15T04:18:17;26.50;;;24.85;;
60973;SDS011;46846;51.528;5.076;2022-12-15T04:20:43;32.73;;;30.40;;
60973;SDS011;46846;51.528;5.076;2022-12-15T04:23:08;30.30;;;28.30;;
60973;SDS011;46846;51.528;5.076;2022-12-15T04:25:34;29.67;;;27.60;;
60973;SDS011;46846;51.528;5.076;2022-12-15T04:28:18;30.87;;;28.53;;
60973;SDS011;46846;51.528;5.076;2022-12-15T04:31:12;28.90;;;27.08;;
60973;SDS011;46846;51.528;5.076;2022-12-15T04:34:02;26.77;;;25.15;;
60973;SDS011;46846;51.528;5.076;2022-12-15T04:36:50;27.38;;;25.67;;
60973;SDS011;46846;51.528;5.076;2022-12-15T04:39:35;28.40;;;26.42;;
60973;SDS011;46846;51.528;5.076;2022-12-15T04:42:22;28.25;;;26.55;;
60973;SDS011;46846;51.528;5.076;2022-12-15T04:45:07;32.45;;;29.20;;
60973;SDS011;46846;51.528;5.076;2022-12-15T04:47:52;29.75;;;27.85;;
60973;SDS011;46846;51.528;5.076;2022-12-15T04:50:36;30.00;;;28.17;;
60973;SDS011;46846;51.528;5.076;2022-12-15T04:53:21;26.48;;;24.83;;
60973;SDS011;46846;51.528;5.076;2022-12-15T04:56:09;30.55;;;28.55;;
60973;SDS011;46846;51.528;5.076;2022-12-15T04:58:54;31.35;;;29.23;;
60973;SDS011;46846;51.528;5.076;2022-12-15T05:01:38;31.15;;;29.17;;
60973;SDS011;46846;51.528;5.076;2022-12-15T05:04:22;26.70;;;25.08;;
60973;SDS011;46846;51.528;5.076;2022-12-15T05:07:05;28.00;;;26.23;;
60973;SDS011;46846;51.528;5.076;2022-12-15T05:09:50;29.88;;;27.88;;
60973;SDS011;46846;51.528;5.076;2022-12-15T05:12:34;29.00;;;27.05;;
60973;SDS011;46846;51.528;5.076;2022-12-15T05:15:18;31.90;;;29.75;;
60973;SDS011;46846;51.528;5.076;2022-12-15T05:18:01;29.00;;;27.15;;
60973;SDS011;46846;51.528;5.076;2022-12-15T05:20:45;29.48;;;27.58;;
60973;SDS011;46846;51.528;5.076;2022-12-15T05:23:29;27.30;;;25.55;;
60973;SDS011;46846;51.528;5.076;2022-12-15T05:26:13;28.88;;;27.08;;
60973;SDS011;46846;51.528;5.076;2022-12-15T05:28:57;29.58;;;27.73;;
60973;SDS011;46846;51.528;5.076;2022-12-15T05:31:41;31.00;;;29.02;;
60973;SDS011;46846;51.528;5.076;2022-12-15T05:37:05;27.98;;;26.08;;
60973;SDS011;46846;51.528;5.076;2022-12-15T05:39:31;27.85;;;26.13;;
60973;SDS011;46846;51.528;5.076;2022-12-15T05:41:57;36.20;;;32.97;;
60973;SDS011;46846;51.528;5.076;2022-12-15T05:44:23;28.20;;;26.30;;
60973;SDS011;46846;51.528;5.076;2022-12-15T05:46:49;29.67;;;27.83;;
60973;SDS011;46846;51.528;5.076;2022-12-15T05:49:16;26.83;;;25.17;;
60973;SDS011;46846;51.528;5.076;2022-12-15T05:51:43;31.67;;;29.38;;
60973;SDS011;46846;51.528;5.076;2022-12-15T05:54:10;28.83;;;26.98;;
60973;SDS011;46846;51.528;5.076;2022-12-15T05:56:37;29.65;;;27.80;;
60973;SDS011;46846;51.528;5.076;2022-12-15T05:59:03;30.33;;;28.48;;
60973;SDS011;46846;51.528;5.076;2022-12-15T06:03:55;25.63;;;24.02;;
60973;SDS011;46846;51.528;5.076;2022-12-15T06:06:21;29.77;;;27.77;;
60973;SDS011;46846;51.528;5.076;2022-12-15T06:08:47;28.23;;;26.43;;
60973;SDS011;46846;51.528;5.076;2022-12-15T06:11:13;29.92;;;27.85;;
60973;SDS011;46846;51.528;5.076;2022-12-15T06:13:39;26.38;;;24.77;;
60973;SDS011;46846;51.528;5.076;2022-12-15T06:16:07;27.98;;;26.23;;
60973;SDS011;46846;51.528;5.076;2022-12-15T06:18:36;30.88;;;28.83;;
60973;SDS011;46846;51.528;5.076;2022-12-15T06:23:30;30.92;;;28.92;;
60973;SDS011;46846;51.528;5.076;2022-12-15T06:25:59;30.80;;;28.90;;
60973;SDS011;46846;51.528;5.076;2022-12-15T06:28:31;28.10;;;26.30;;
60973;SDS011;46846;51.528;5.076;2022-12-15T06:30:59;29.53;;;27.47;;
60973;SDS011;46846;51.528;5.076;2022-12-15T06:33:27;30.08;;;28.15;;
60973;SDS011;46846;51.528;5.076;2022-12-15T06:35:53;31.27;;;29.23;;
60973;SDS011;46846;51.528;5.076;2022-12-15T06:38:19;28.40;;;26.65;;
60973;SDS011;46846;51.528;5.076;2022-12-15T06:40:44;31.03;;;28.90;;
60973;SDS011;46846;51.528;5.076;2022-12-15T06:43:09;26.17;;;24.58;;
60973;SDS011;46846;51.528;5.076;2022-12-15T06:45:35;30.50;;;28.60;;
60973;SDS011;46846;51.528;5.076;2022-12-15T06:48:00;27.57;;;25.67;;
60973;SDS011;46846;51.528;5.076;2022-12-15T06:50:26;28.67;;;26.88;;
60973;SDS011;46846;51.528;5.076;2022-12-15T06:52:51;29.15;;;27.08;;
60973;SDS011;46846;51.528;5.076;2022-12-15T06:55:17;28.77;;;26.77;;
60973;SDS011;46846;51.528;5.076;2022-12-15T06:57:42;25.13;;;23.63;;
60973;SDS011;46846;51.528;5.076;2022-12-15T07:00:08;27.87;;;26.10;;
60973;SDS011;46846;51.528;5.076;2022-12-15T07:02:33;29.52;;;27.55;;
60973;SDS011;46846;51.528;5.076;2022-12-15T07:04:59;29.10;;;27.13;;
60973;SDS011;46846;51.528;5.076;2022-12-15T07:07:25;30.40;;;28.50;;
60973;SDS011;46846;51.528;5.076;2022-12-15T07:09:51;31.23;;;29.02;;
60973;SDS011;46846;51.528;5.076;2022-12-15T07:12:17;27.88;;;26.08;;
60973;SDS011;46846;51.528;5.076;2022-12-15T07:14:42;28.17;;;26.48;;
60973;SDS011;46846;51.528;5.076;2022-12-15T07:17:08;27.58;;;25.92;;
60973;SDS011;46846;51.528;5.076;2022-12-15T07:19:36;29.50;;;27.65;;
60973;SDS011;46846;51.528;5.076;2022-12-15T07:22:02;34.10;;;31.63;;
60973;SDS011;46846;51.528;5.076;2022-12-15T07:24:27;29.92;;;26.65;;
60973;SDS011;46846;51.528;5.076;2022-12-15T07:26:53;30.23;;;28.17;;
60973;SDS011;46846;51.528;5.076;2022-12-15T07:29:18;27.88;;;26.15;;
60973;SDS011;46846;51.528;5.076;2022-12-15T07:31:44;29.58;;;27.42;;
60973;SDS011;46846;51.528;5.076;2022-12-15T07:34:10;28.20;;;26.20;;
60973;SDS011;46846;51.528;5.076;2022-12-15T07:36:35;28.65;;;26.80;;
60973;SDS011;46846;51.528;5.076;2022-12-15T07:39:01;28.15;;;26.35;;
60973;SDS011;46846;51.528;5.076;2022-12-15T07:41:28;30.48;;;28.48;;
60973;SDS011;46846;51.528;5.076;2022-12-15T07:43:54;28.80;;;26.90;;
60973;SDS011;46846;51.528;5.076;2022-12-15T07:46:20;27.52;;;25.73;;
60973;SDS011;46846;51.528;5.076;2022-12-15T07:48:45;28.75;;;26.85;;
60973;SDS011;46846;51.528;5.076;2022-12-15T07:51:11;27.38;;;25.73;;
60973;SDS011;46846;51.528;5.076;2022-12-15T07:53:36;28.45;;;26.60;;
60973;SDS011;46846;51.528;5.076;2022-12-15T07:56:02;32.13;;;29.80;;
60973;SDS011;46846;51.528;5.076;2022-12-15T07:58:29;32.67;;;30.33;;
60973;SDS011;46846;51.528;5.076;2022-12-15T08:00:59;28.92;;;27.15;;
60973;SDS011;46846;51.528;5.076;2022-12-15T08:03:26;25.58;;;23.98;;
60973;SDS011;46846;51.528;5.076;2022-12-15T08:05:52;27.15;;;25.02;;
60973;SDS011;46846;51.528;5.076;2022-12-15T08:08:18;31.13;;;28.85;;
60973;SDS011;46846;51.528;5.076;2022-12-15T08:10:43;29.55;;;27.55;;
60973;SDS011;46846;51.528;5.076;2022-12-15T08:13:09;27.30;;;25.60;;
60973;SDS011;46846;51.528;5.076;2022-12-15T08:15:35;32.33;;;30.20;;
60973;SDS011;46846;51.528;5.076;2022-12-15T08:18:01;32.80;;;30.38;;
60973;SDS011;46846;51.528;5.076;2022-12-15T08:20:27;33.20;;;30.63;;
60973;SDS011;46846;51.528;5.076;2022-12-15T08:25:18;27.48;;;25.52;;
60973;SDS011;46846;51.528;5.076;2022-12-15T08:27:43;25.43;;;23.83;;
60973;SDS011;46846;51.528;5.076;2022-12-15T08:30:09;26.57;;;24.87;;
60973;SDS011;46846;51.528;5.076;2022-12-15T08:32:34;31.73;;;29.42;;
60973;SDS011;46846;51.528;5.076;2022-12-15T08:35:00;33.80;;;31.30;;
60973;SDS011;46846;51.528;5.076;2022-12-15T08:37:25;31.50;;;29.20;;
60973;SDS011;46846;51.528;5.076;2022-12-15T08:39:51;31.27;;;29.15;;
60973;SDS011;46846;51.528;5.076;2022-12-15T08:42:16;29.73;;;27.00;;
60973;SDS011;46846;51.528;5.076;2022-12-15T08:44:41;29.70;;;27.23;;
60973;SDS011;46846;51.528;5.076;2022-12-15T08:47:07;34.93;;;32.17;;
60973;SDS011;46846;51.528;5.076;2022-12-15T08:49:32;33.07;;;30.33;;
60973;SDS011;46846;51.528;5.076;2022-12-15T08:51:57;28.48;;;26.60;;
60973;SDS011;46846;51.528;5.076;2022-12-15T08:54:23;32.97;;;30.07;;
60973;SDS011;46846;51.528;5.076;2022-12-15T08:56:51;30.88;;;28.60;;
60973;SDS011;46846;51.528;5.076;2022-12-15T08:59:16;30.00;;;27.83;;
60973;SDS011;46846;51.528;5.076;2022-12-15T09:04:08;33.03;;;29.70;;
60973;SDS011;46846;51.528;5.076;2022-12-15T09:06:34;32.80;;;30.20;;
60973;SDS011;46846;51.528;5.076;2022-12-15T09:09:02;33.33;;;30.73;;
60973;SDS011;46846;51.528;5.076;2022-12-15T09:11:30;36.25;;;33.13;;
60973;SDS011;46846;51.528;5.076;2022-12-15T09:13:55;35.75;;;32.85;;
60973;SDS011;46846;51.528;5.076;2022-12-15T09:16:22;32.50;;;29.85;;
60973;SDS011;46846;51.528;5.076;2022-12-15T09:18:48;30.63;;;28.60;;
60973;SDS011;46846;51.528;5.076;2022-12-15T09:21:16;32.78;;;30.30;;
60973;SDS011;46846;51.528;5.076;2022-12-15T09:23:46;32.75;;;30.55;;
60973;SDS011;46846;51.528;5.076;2022-12-15T09:26:13;31.17;;;29.00;;
60973;SDS011;46846;51.528;5.076;2022-12-15T09:31:12;27.55;;;25.65;;
60973;SDS011;46846;51.528;5.076;2022-12-15T09:33:39;35.17;;;31.90;;
60973;SDS011;46846;51.528;5.076;2022-12-15T09:36:06;29.77;;;27.88;;
60973;SDS011;46846;51.528;5.076;2022-12-15T09:38:33;30.13;;;28.08;;
60973;SDS011;46846;51.528;5.076;2022-12-15T09:41:06;29.00;;;27.02;;
60973;SDS011;46846;51.528;5.076;2022-12-15T09:44:11;33.17;;;30.77;;
60973;SDS011;46846;51.528;5.076;2022-12-15T09:46:43;33.08;;;30.30;;
60973;SDS011;46846;51.528;5.076;2022-12-15T09:51:55;34.90;;;32.50;;
60973;SDS011;46846;51.528;5.076;2022-12-15T09:54:26;32.55;;;30.17;;
60973;SDS011;46846;51.528;5.076;2022-12-15T09:56:56;36.10;;;32.78;;
60973;SDS011;46846;51.528;5.076;2022-12-15T10:02:12;34.08;;;31.45;;
60973;SDS011;46846;51.528;5.076;2022-12-15T10:07:43;39.40;;;35.95;;
60973;SDS011;46846;51.528;5.076;2022-12-15T10:12:49;42.17;;;37.70;;
60973;SDS011;46846;51.528;5.076;2022-12-15T10:15:22;33.15;;;30.20;;
60973;SDS011;46846;51.528;5.076;2022-12-15T10:18:14;34.10;;;31.00;;
60973;SDS011;46846;51.528;5.076;2022-12-15T10:20:42;31.08;;;28.63;;
60973;SDS011;46846;51.528;5.076;2022-12-15T10:23:11;33.95;;;31.05;;
60973;SDS011;46846;51.528;5.076;2022-12-15T10:25:43;38.63;;;35.10;;
60973;SDS011;46846;51.528;5.076;2022-12-15T10:28:29;34.88;;;32.20;;
60973;SDS011;46846;51.528;5.076;2022-12-15T10:31:19;33.92;;;30.88;;
60973;SDS011;46846;51.528;5.076;2022-12-15T10:33:56;35.08;;;32.47;;
60973;SDS011;46846;51.528;5.076;2022-12-15T10:36:29;31.77;;;29.48;;
60973;SDS011;46846;51.528;5.076;2022-12-15T10:38:55;33.72;;;30.73;;
60973;SDS011;46846;51.528;5.076;2022-12-15T10:41:21;42.23;;;38.13;;
60973;SDS011;46846;51.528;5.076;2022-12-15T10:43:50;41.55;;;37.60;;
60973;SDS011;46846;51.528;5.076;2022-12-15T10:46:18;41.58;;;37.63;;
60973;SDS011;46846;51.528;5.076;2022-12-15T10:48:44;36.97;;;33.90;;
60973;SDS011;46846;51.528;5.076;2022-12-15T10:56:34;34.67;;;31.88;;
60973;SDS011;46846;51.528;5.076;2022-12-15T11:01:54;38.70;;;35.05;;
60973;SDS011;46846;51.528;5.076;2022-12-15T11:06:59;40.53;;;36.63;;
60973;SDS011;46846;51.528;5.076;2022-12-15T11:09:33;28.80;;;26.75;;
60973;SDS011;46846;51.528;5.076;2022-12-15T11:12:02;40.45;;;36.72;;
60973;SDS011;46846;51.528;5.076;2022-12-15T11:14:59;37.10;;;33.83;;
60973;SDS011;46846;51.528;5.076;2022-12-15T11:17:28;36.13;;;32.92;;
60973;SDS011;46846;51.528;5.076;2022-12-15T11:20:05;40.10;;;36.55;;
60973;SDS011;46846;51.528;5.076;2022-12-15T11:22:54;32.35;;;30.00;;
60973;SDS011;46846;51.528;5.076;2022-12-15T11:25:32;40.10;;;36.47;;
60973;SDS011;46846;51.528;5.076;2022-12-15T11:28:04;43.38;;;36.50;;
60973;SDS011;46846;51.528;5.076;2022-12-15T11:30:56;40.70;;;36.67;;
60973;SDS011;46846;51.528;5.076;2022-12-15T11:33:37;43.42;;;36.88;;
60973;SDS011;46846;51.528;5.076;2022-12-15T11:36:18;34.45;;;31.88;;
60973;SDS011;46846;51.528;5.076;2022-12-15T11:38:56;34.63;;;31.70;;
60973;SDS011;46846;51.528;5.076;2022-12-15T11:44:21;30.30;;;28.25;;
60973;SDS011;46846;51.528;5.076;2022-12-15T11:52:11;37.47;;;33.90;;
60973;SDS011;46846;51.528;5.076;2022-12-15T11:54:57;34.55;;;31.55;;
60973;SDS011;46846;51.528;5.076;2022-12-15T12:00:17;30.93;;;28.80;;
60973;SDS011;46846;51.528;5.076;2022-12-15T12:03:28;34.05;;;31.00;;
60973;SDS011;46846;51.528;5.076;2022-12-15T12:05:56;27.65;;;25.85;;
60973;SDS011;46846;51.528;5.076;2022-12-15T12:10:52;40.45;;;35.72;;
60973;SDS011;46846;51.528;5.076;2022-12-15T12:13:34;35.85;;;32.30;;
60973;SDS011;46846;51.528;5.076;2022-12-15T12:21:46;38.00;;;34.08;;
60973;SDS011;46846;51.528;5.076;2022-12-15T12:24:23;40.03;;;35.92;;
60973;SDS011;46846;51.528;5.076;2022-12-15T12:26:58;36.53;;;33.33;;
60973;SDS011;46846;51.528;5.076;2022-12-15T12:29:37;42.28;;;38.22;;
60973;SDS011;46846;51.528;5.076;2022-12-15T12:32:14;43.13;;;35.78;;
60973;SDS011;46846;51.528;5.076;2022-12-15T12:37:51;36.08;;;32.60;;
60973;SDS011;46846;51.528;5.076;2022-12-15T12:42:53;40.15;;;36.22;;
60973;SDS011;46846;51.528;5.076;2022-12-15T12:45:22;41.47;;;36.92;;
60973;SDS011;46846;51.528;5.076;2022-12-15T12:47:54;42.15;;;36.45;;
60973;SDS011;46846;51.528;5.076;2022-12-15T12:50:24;37.58;;;33.65;;
60973;SDS011;46846;51.528;5.076;2022-12-15T12:52:53;44.92;;;40.05;;
60973;SDS011;46846;51.528;5.076;2022-12-15T12:55:37;42.20;;;37.83;;
60973;SDS011;46846;51.528;5.076;2022-12-15T13:03:37;44.00;;;39.07;;
60973;SDS011;46846;51.528;5.076;2022-12-15T13:06:18;45.17;;;39.17;;
60973;SDS011;46846;51.528;5.076;2022-12-15T13:14:20;42.95;;;38.28;;
60973;SDS011;46846;51.528;5.076;2022-12-15T13:24:54;39.72;;;35.97;;
60973;SDS011;46846;51.528;5.076;2022-12-15T13:27:20;43.75;;;39.40;;
60973;SDS011;46846;51.528;5.076;2022-12-15T13:29:59;45.38;;;40.35;;
60973;SDS011;46846;51.528;5.076;2022-12-15T13:32:36;54.33;;;41.20;;
60973;SDS011;46846;51.528;5.076;2022-12-15T13:35:15;53.88;;;42.85;;
60973;SDS011;46846;51.528;5.076;2022-12-15T13:37:51;43.05;;;38.45;;
60973;SDS011;46846;51.528;5.076;2022-12-15T13:40:48;38.50;;;34.42;;
60973;SDS011;46846;51.528;5.076;2022-12-15T13:45:58;52.15;;;43.60;;
60973;SDS011;46846;51.528;5.076;2022-12-15T13:48:33;80.13;;;55.08;;
60973;SDS011;46846;51.528;5.076;2022-12-15T13:56:50;53.97;;;42.10;;
60973;SDS011;46846;51.528;5.076;2022-12-15T14:01:54;49.22;;;43.92;;
60973;SDS011;46846;51.528;5.076;2022-12-15T14:04:20;40.33;;;36.53;;
60973;SDS011;46846;51.528;5.076;2022-12-15T14:06:48;44.22;;;38.95;;
60973;SDS011;46846;51.528;5.076;2022-12-15T14:09:31;40.08;;;36.30;;
60973;SDS011;46846;51.528;5.076;2022-12-15T14:12:02;44.58;;;39.90;;
60973;SDS011;46846;51.528;5.076;2022-12-15T14:14:36;48.53;;;43.47;;
60973;SDS011;46846;51.528;5.076;2022-12-15T14:17:11;47.78;;;42.30;;
60973;SDS011;46846;51.528;5.076;2022-12-15T14:19:44;45.22;;;40.40;;
60973;SDS011;46846;51.528;5.076;2022-12-15T14:24:44;43.65;;;38.10;;
60973;SDS011;46846;51.528;5.076;2022-12-15T14:27:24;54.75;;;40.38;;
60973;SDS011;46846;51.528;5.076;2022-12-15T14:38:10;44.88;;;40.05;;
60973;SDS011;46846;51.528;5.076;2022-12-15T14:40:40;52.42;;;41.38;;
60973;SDS011;46846;51.528;5.076;2022-12-15T14:43:11;45.35;;;40.70;;
60973;SDS011;46846;51.528;5.076;2022-12-15T14:45:45;45.95;;;40.30;;
60973;SDS011;46846;51.528;5.076;2022-12-15T14:48:16;47.55;;;42.38;;
60973;SDS011;46846;51.528;5.076;2022-12-15T14:50:51;52.67;;;43.95;;
60973;SDS011;46846;51.528;5.076;2022-12-15T14:53:16;63.67;;;44.75;;
60973;SDS011;46846;51.528;5.076;2022-12-15T14:55:45;43.47;;;39.25;;
60973;SDS011;46846;51.528;5.076;2022-12-15T15:01:00;48.45;;;40.58;;
60973;SDS011;46846;51.528;5.076;2022-12-15T15:03:33;47.13;;;42.03;;
60973;SDS011;46846;51.528;5.076;2022-12-15T15:06:04;46.08;;;41.10;;
60973;SDS011;46846;51.528;5.076;2022-12-15T15:11:28;59.05;;;42.80;;
60973;SDS011;46846;51.528;5.076;2022-12-15T15:14:04;42.28;;;38.10;;
60973;SDS011;46846;51.528;5.076;2022-12-15T15:16:35;45.13;;;40.85;;
60973;SDS011;46846;51.528;5.076;2022-12-15T15:19:02;53.58;;;42.00;;
60973;SDS011;46846;51.528;5.076;2022-12-15T15:21:29;55.65;;;39.60;;
60973;SDS011;46846;51.528;5.076;2022-12-15T15:26:35;47.30;;;40.42;;
60973;SDS011;46846;51.528;5.076;2022-12-15T15:29:02;45.88;;;41.17;;
60973;SDS011;46846;51.528;5.076;2022-12-15T15:34:00;46.60;;;42.25;;
60973;SDS011;46846;51.528;5.076;2022-12-15T15:36:32;44.17;;;39.60;;
60973;SDS011;46846;51.528;5.076;2022-12-15T15:39:00;50.65;;;38.50;;
60973;SDS011;46846;51.528;5.076;2022-12-15T15:41:28;54.35;;;39.17;;
60973;SDS011;46846;51.528;5.076;2022-12-15T15:43:59;51.90;;;41.83;;
60973;SDS011;46846;51.528;5.076;2022-12-15T15:46:30;42.40;;;37.78;;
60973;SDS011;46846;51.528;5.076;2022-12-15T15:49:07;41.40;;;37.70;;
60973;SDS011;46846;51.528;5.076;2022-12-15T15:51:37;45.53;;;39.22;;
60973;SDS011;46846;51.528;5.076;2022-12-15T15:54:06;42.65;;;38.38;;
60973;SDS011;46846;51.528;5.076;2022-12-15T15:56:37;45.92;;;40.42;;
60973;SDS011;46846;51.528;5.076;2022-12-15T15:59:16;40.47;;;36.22;;
60973;SDS011;46846;51.528;5.076;2022-12-15T16:01:45;45.42;;;41.05;;
60973;SDS011;46846;51.528;5.076;2022-12-15T16:04:15;43.97;;;39.45;;
60973;SDS011;46846;51.528;5.076;2022-12-15T16:06:41;42.53;;;38.63;;
60973;SDS011;46846;51.528;5.076;2022-12-15T16:09:06;41.47;;;37.47;;
60973;SDS011;46846;51.528;5.076;2022-12-15T16:11:33;39.65;;;36.15;;
60973;SDS011;46846;51.528;5.076;2022-12-15T16:14:00;46.10;;;41.28;;
60973;SDS011;46846;51.528;5.076;2022-12-15T16:16:29;43.15;;;39.10;;
60973;SDS011;46846;51.528;5.076;2022-12-15T16:18:56;39.75;;;36.25;;
60973;SDS011;46846;51.528;5.076;2022-12-15T16:21:22;38.97;;;35.58;;
60973;SDS011;46846;51.528;5.076;2022-12-15T16:23:51;41.35;;;37.70;;
60973;SDS011;46846;51.528;5.076;2022-12-15T16:26:27;43.88;;;40.00;;
60973;SDS011;46846;51.528;5.076;2022-12-15T16:28:55;36.70;;;33.65;;
60973;SDS011;46846;51.528;5.076;2022-12-15T16:31:34;42.13;;;38.13;;
60973;SDS011;46846;51.528;5.076;2022-12-15T16:34:01;42.53;;;38.33;;
60973;SDS011;46846;51.528;5.076;2022-12-15T16:36:27;42.30;;;38.20;;
60973;SDS011;46846;51.528;5.076;2022-12-15T16:38:52;42.78;;;38.80;;
60973;SDS011;46846;51.528;5.076;2022-12-15T16:41:18;42.90;;;38.45;;
60973;SDS011;46846;51.528;5.076;2022-12-15T16:43:43;42.53;;;38.78;;
60973;SDS011;46846;51.528;5.076;2022-12-15T16:46:10;56.73;;;36.57;;
60973;SDS011;46846;51.528;5.076;2022-12-15T16:48:36;38.10;;;34.65;;
60973;SDS011;46846;51.528;5.076;2022-12-15T16:51:02;35.10;;;31.80;;
60973;SDS011;46846;51.528;5.076;2022-12-15T16:53:32;44.10;;;39.80;;
60973;SDS011;46846;51.528;5.076;2022-12-15T16:56:02;41.50;;;37.85;;
60973;SDS011;46846;51.528;5.076;2022-12-15T16:58:29;41.97;;;38.05;;
60973;SDS011;46846;51.528;5.076;2022-12-15T17:03:21;41.58;;;37.63;;
60973;SDS011;46846;51.528;5.076;2022-12-15T17:05:49;41.33;;;37.50;;
60973;SDS011;46846;51.528;5.076;2022-12-15T17:08:22;41.58;;;37.50;;
60973;SDS011;46846;51.528;5.076;2022-12-15T17:10:50;44.40;;;39.97;;
60973;SDS011;46846;51.528;5.076;2022-12-15T17:13:32;41.90;;;37.35;;